createdAt,value
2023-05-30T00:00:53.510Z,1.23
2023-05-30T00:05:55.093Z,0.73
2023-05-30T00:10:57.426Z,1.07
2023-05-30T00:16:00.224Z,1.17
2023-05-30T00:21:07.395Z,1.10
2023-05-30T00:26:10.145Z,1.07
2023-05-30T00:31:12.493Z,1.00
2023-05-30T00:36:14.255Z,1.13
2023-05-30T00:41:18.343Z,1.00
2023-05-30T00:46:20.388Z,1.23
2023-05-30T00:51:23.438Z,1.23
2023-05-30T00:56:25.051Z,1.10
2023-05-30T01:01:30.458Z,1.10
2023-05-30T01:06:33.634Z,1.20
2023-05-30T01:11:56.968Z,1.20
2023-05-30T01:17:09.744Z,1.20
2023-05-30T01:22:52.913Z,1.00
2023-05-30T01:28:10.269Z,0.90
2023-05-30T01:33:14.151Z,1.00
2023-05-30T01:38:17.056Z,0.90
2023-05-30T01:43:37.015Z,1.20
2023-05-30T01:49:16.733Z,1.23
2023-05-30T01:54:20.444Z,0.90
2023-05-30T01:59:25.245Z,1.07
2023-05-30T02:04:27.080Z,1.10
2023-05-30T02:09:29.068Z,1.00
2023-05-30T02:14:32.092Z,1.00
2023-05-30T02:19:34.251Z,1.10
2023-05-30T02:24:35.918Z,0.73
2023-05-30T02:29:37.793Z,1.10
2023-05-30T02:34:39.490Z,1.00
2023-05-30T02:39:41.107Z,0.87
2023-05-30T02:44:44.370Z,0.90
2023-05-30T02:49:46.045Z,1.20
2023-05-30T02:54:49.539Z,0.93
2023-05-30T03:00:13.390Z,1.20
2023-05-30T03:05:18.770Z,1.30
2023-05-30T03:10:20.578Z,1.10
2023-05-30T03:15:25.082Z,0.80
2023-05-30T03:20:29.472Z,1.23
2023-05-30T03:25:31.567Z,1.10
2023-05-30T03:30:34.070Z,1.20
2023-05-30T03:35:38.153Z,1.50
2023-05-30T03:40:39.860Z,1.30
2023-05-30T03:45:41.554Z,1.33
2023-05-30T03:50:43.185Z,1.40
2023-05-30T03:55:46.015Z,1.30
2023-05-30T04:00:47.820Z,1.17
2023-05-30T04:05:50.089Z,1.30
2023-05-30T04:10:51.794Z,1.23
2023-05-30T04:15:53.461Z,1.23
2023-05-30T04:20:55.321Z,1.20
2023-05-30T04:25:59.006Z,1.53
2023-05-30T04:31:16.350Z,1.10
2023-05-30T04:36:22.442Z,1.17
2023-05-30T04:41:26.543Z,1.20
2023-05-30T04:46:31.137Z,1.40
2023-05-30T04:51:34.137Z,1.30
2023-05-30T04:56:36.291Z,1.00
2023-05-30T05:01:38.114Z,1.17
2023-05-30T05:06:40.993Z,1.40
2023-05-30T05:11:42.613Z,1.63
2023-05-30T05:16:44.296Z,1.13
2023-05-30T05:21:45.925Z,1.30
2023-05-30T05:26:47.645Z,1.23
2023-05-30T05:31:49.285Z,1.23
2023-05-30T05:36:51.191Z,1.60
2023-05-30T05:41:53.198Z,1.50
2023-05-30T05:46:54.904Z,1.17
2023-05-30T05:51:56.605Z,1.20
2023-05-30T05:56:58.210Z,0.97
2023-05-30T06:01:59.998Z,1.63
2023-05-30T06:07:01.699Z,1.07
2023-05-30T06:12:04.280Z,1.07
2023-05-30T06:17:08.625Z,1.10
2023-05-30T06:22:10.423Z,1.10
2023-05-30T06:27:12.079Z,0.93
2023-05-30T06:32:16.725Z,1.10
2023-05-30T06:37:18.947Z,0.90
2023-05-30T06:42:21.645Z,0.80
2023-05-30T06:47:23.842Z,0.93
2023-05-30T06:52:25.536Z,0.97
2023-05-30T06:57:27.243Z,1.30
2023-05-30T07:02:28.885Z,1.27
2023-05-30T07:07:30.774Z,1.67
2023-05-30T07:12:32.420Z,0.97
2023-05-30T07:17:34.188Z,1.00
2023-05-30T07:22:35.897Z,1.20
2023-05-30T07:27:37.901Z,1.55
2023-05-30T07:32:40.565Z,1.48
2023-05-30T07:37:42.376Z,1.40
2023-05-30T07:42:43.966Z,1.33
2023-05-30T07:47:45.663Z,1.13
2023-05-30T07:52:47.652Z,1.45
2023-05-30T07:57:49.406Z,1.38
2023-05-30T08:02:57.103Z,1.27
2023-05-30T08:07:58.898Z,1.35
2023-05-30T08:13:00.694Z,1.33
2023-05-30T08:18:03.401Z,1.48
2023-05-30T08:23:05.080Z,1.27
2023-05-30T08:28:07.515Z,1.27
2023-05-30T08:33:11.366Z,1.90
2023-05-30T08:38:14.117Z,1.60
2023-05-30T08:43:15.806Z,1.25
2023-05-30T08:48:18.595Z,1.17
2023-05-30T08:53:26.445Z,1.60
2023-05-30T08:58:31.185Z,1.42
2023-05-30T09:03:34.611Z,1.42
2023-05-30T09:08:46.983Z,1.38
2023-05-30T09:13:49.749Z,1.55
2023-05-30T09:18:52.123Z,1.67
2023-05-30T09:23:54.414Z,1.90
2023-05-30T09:28:56.103Z,1.52
2023-05-30T09:33:57.705Z,1.75
2023-05-30T09:39:06.544Z,1.40
2023-05-30T09:44:11.505Z,1.60
2023-05-30T09:49:14.162Z,1.60
2023-05-30T09:54:15.909Z,1.92
2023-05-30T09:59:17.610Z,1.80
2023-05-30T10:04:23.979Z,1.70
2023-05-30T10:09:25.834Z,1.80
2023-05-30T10:14:29.151Z,1.45
2023-05-30T10:19:56.684Z,1.05
2023-05-30T10:25:00.814Z,2.08
2023-05-30T10:30:08.064Z,1.27
2023-05-30T10:35:12.459Z,1.40
2023-05-30T10:40:40.191Z,1.38
2023-05-30T10:45:52.724Z,1.52
2023-05-30T10:56:00.961Z,1.27
2023-05-30T11:01:28.044Z,1.40
2023-05-30T11:06:34.355Z,1.58
2023-05-30T11:11:46.471Z,2.10
2023-05-30T11:16:58.818Z,1.90
2023-05-30T11:22:02.262Z,1.40
2023-05-30T11:27:11.938Z,1.73
2023-05-30T11:32:13.806Z,1.42
2023-05-30T11:37:15.491Z,1.30
2023-05-30T11:42:17.083Z,1.40
2023-05-30T11:47:32.346Z,1.70
2023-05-30T11:52:41.561Z,1.60
2023-05-30T11:57:43.255Z,1.23
2023-05-30T12:02:45.132Z,1.60
2023-05-30T12:07:50.573Z,1.30
2023-05-30T12:12:52.420Z,1.65
2023-05-30T12:17:54.285Z,1.40
2023-05-30T12:22:56.202Z,1.83
2023-05-30T12:27:58.352Z,1.20
2023-05-30T12:33:00.287Z,1.42
2023-05-30T12:38:04.241Z,1.67
2023-05-30T12:43:07.507Z,1.40
2023-05-30T12:48:09.138Z,1.35
2023-05-30T12:53:11.007Z,1.25
2023-05-30T12:58:12.665Z,1.40
2023-05-30T13:03:14.342Z,1.80
2023-05-30T13:08:16.550Z,1.52
2023-05-30T13:13:18.390Z,1.45
2023-05-30T13:18:20.028Z,1.52
2023-05-30T13:23:22.918Z,1.40
2023-05-30T13:28:25.414Z,1.42
2023-05-30T13:33:27.368Z,1.63
2023-05-30T13:38:29.446Z,1.90
2023-05-30T13:43:31.189Z,1.52
2023-05-30T13:48:32.885Z,1.42
2023-05-30T13:53:45.545Z,1.58
2023-05-30T13:58:56.554Z,1.33
2023-05-30T14:03:58.599Z,1.50
2023-05-30T14:09:00.293Z,1.73
2023-05-30T14:14:02.914Z,1.40
2023-05-30T14:19:10.044Z,1.38
2023-05-30T14:24:11.810Z,1.58
2023-05-30T14:29:14.098Z,1.50
2023-05-30T14:34:16.077Z,1.42
2023-05-30T14:39:17.917Z,1.70
2023-05-30T14:44:19.595Z,1.60
2023-05-30T14:49:21.448Z,1.38
2023-05-30T14:54:23.466Z,1.40
2023-05-30T14:59:25.428Z,1.45
2023-05-30T15:04:27.779Z,1.60
2023-05-30T15:09:31.833Z,1.38
2023-05-30T15:14:33.521Z,1.20
2023-05-30T15:19:35.112Z,1.45
2023-05-30T15:24:36.791Z,1.55
2023-05-30T15:29:38.488Z,1.50
2023-05-30T15:34:43.902Z,1.52
2023-05-30T15:39:45.612Z,1.33
2023-05-30T15:44:48.345Z,1.45
2023-05-30T15:49:50.158Z,1.40
2023-05-30T15:54:51.802Z,1.30
2023-05-30T15:59:53.392Z,1.50
2023-05-30T16:04:55.054Z,1.50
2023-05-30T16:09:57.805Z,1.48
2023-05-30T16:14:59.511Z,1.33
2023-05-30T16:20:01.074Z,1.42
2023-05-30T16:25:03.990Z,1.30
2023-05-30T16:30:07.399Z,1.20
2023-05-30T16:35:10.157Z,1.85
2023-05-30T16:40:12.082Z,1.10
2023-05-30T16:45:13.703Z,1.70
2023-05-30T16:50:15.451Z,1.20
2023-05-30T16:55:17.163Z,1.60
2023-05-30T17:00:19.804Z,1.40
2023-05-30T17:05:22.968Z,1.85
2023-05-30T17:10:25.157Z,1.75
2023-05-30T17:15:26.823Z,1.80
2023-05-30T17:20:28.416Z,1.90
2023-05-30T17:25:30.256Z,1.83
2023-05-30T17:30:32.226Z,1.73
2023-05-30T17:35:34.369Z,1.60
2023-05-30T17:40:36.200Z,1.80
2023-05-30T17:45:38.567Z,1.70
2023-05-30T17:50:40.316Z,1.40
2023-05-30T17:55:43.080Z,1.80
2023-05-30T18:00:47.228Z,2.05
2023-05-30T18:05:49.000Z,1.90
2023-05-30T18:10:51.334Z,1.70
2023-05-30T18:15:52.995Z,1.60
2023-05-30T18:20:54.627Z,1.70
2023-05-30T18:25:56.248Z,1.80
2023-05-30T18:30:57.881Z,1.48
2023-05-30T18:36:12.026Z,1.80
2023-05-30T18:41:15.710Z,1.80
2023-05-30T18:46:17.849Z,1.67
2023-05-30T18:51:19.487Z,1.70
2023-05-30T18:56:23.945Z,1.67
2023-05-30T19:01:26.255Z,2.20
2023-05-30T19:06:27.969Z,2.10
2023-05-30T19:11:29.626Z,2.10
2023-05-30T19:16:31.425Z,1.43
2023-05-30T19:21:33.715Z,1.80
2023-05-30T19:26:35.383Z,2.20
2023-05-30T19:31:37.540Z,1.90
2023-05-30T19:36:39.258Z,1.70
2023-05-30T19:41:40.893Z,1.67
2023-05-30T19:46:42.589Z,1.90
2023-05-30T19:51:44.166Z,1.80
2023-05-30T19:56:45.900Z,1.50
2023-05-30T20:01:47.590Z,2.10
2023-05-30T20:06:49.377Z,1.60
2023-05-30T20:11:51.229Z,1.77
2023-05-30T20:16:52.934Z,1.80
2023-05-30T20:21:54.530Z,1.77
2023-05-30T20:26:56.474Z,1.67
2023-05-30T20:31:58.134Z,1.70
2023-05-30T20:36:59.908Z,1.73
2023-05-30T20:42:02.406Z,1.80
2023-05-30T20:47:04.544Z,1.73
2023-05-30T20:52:10.615Z,1.40
2023-05-30T20:57:17.058Z,1.60
2023-05-30T21:02:18.759Z,1.80
2023-05-30T21:07:20.409Z,1.60
2023-05-30T21:12:22.296Z,1.70
2023-05-30T21:17:24.078Z,1.50
2023-05-30T21:22:25.779Z,2.03
2023-05-30T21:27:27.462Z,1.93
2023-05-30T21:32:29.222Z,2.40
2023-05-30T21:37:30.983Z,1.70
2023-05-30T21:42:32.653Z,2.33
2023-05-30T21:47:34.340Z,1.90
2023-05-30T21:52:37.738Z,2.27
2023-05-30T21:57:39.444Z,2.53
2023-05-30T22:02:41.688Z,1.87
2023-05-30T22:07:43.619Z,1.83
2023-05-30T22:12:45.513Z,2.10
2023-05-30T22:17:47.398Z,2.13
2023-05-30T22:22:49.076Z,2.80
2023-05-30T22:27:50.723Z,3.07
2023-05-30T22:32:52.530Z,2.00
2023-05-30T22:37:54.243Z,2.20
2023-05-30T22:42:56.046Z,2.87
2023-05-30T22:47:57.802Z,2.47
2023-05-30T22:52:59.452Z,2.80
2023-05-30T22:58:01.139Z,2.50
2023-05-30T23:03:02.869Z,2.53
2023-05-30T23:08:06.171Z,2.63
2023-05-30T23:13:07.802Z,2.43
2023-05-30T23:18:09.652Z,2.27
2023-05-30T23:23:12.605Z,2.40
2023-05-30T23:28:14.379Z,2.47
2023-05-30T23:33:16.013Z,2.27
2023-05-30T23:38:17.612Z,2.50
2023-05-30T23:43:19.223Z,2.40
2023-05-30T23:48:20.845Z,2.67
2023-05-30T23:53:22.695Z,2.50
2023-05-30T23:58:24.440Z,2.60
